createdAt,value
2023-05-15T00:02:44.694Z,12.81
2023-05-15T00:07:47.160Z,12.80
2023-05-15T00:12:49.374Z,12.80
2023-05-15T00:17:51.083Z,12.76
2023-05-15T00:22:52.967Z,12.61
2023-05-15T00:27:54.823Z,12.62
2023-05-15T00:32:57.342Z,12.48
2023-05-15T00:37:59.252Z,12.39
2023-05-15T00:43:02.559Z,12.32
2023-05-15T00:48:05.712Z,12.30
2023-05-15T00:53:07.916Z,12.27
2023-05-15T00:58:10.817Z,12.13
2023-05-15T01:03:12.540Z,12.12
2023-05-15T01:08:45.861Z,12.11
2023-05-15T01:13:47.823Z,12.04
2023-05-15T01:18:49.800Z,11.83
2023-05-15T01:24:34.397Z,11.68
2023-05-15T01:29:42.691Z,11.52
2023-05-15T01:34:53.368Z,11.43
2023-05-15T01:40:00.825Z,11.44
2023-05-15T01:45:11.157Z,11.37
2023-05-15T01:50:15.624Z,11.36
2023-05-15T01:55:20.580Z,11.42
2023-05-15T02:00:22.777Z,11.47
2023-05-15T02:05:27.052Z,11.52
2023-05-15T02:10:29.385Z,11.58
2023-05-15T02:15:31.827Z,11.60
2023-05-15T02:20:33.684Z,11.68
2023-05-15T02:26:14.036Z,11.74
2023-05-15T02:31:34.742Z,11.81
2023-05-15T02:36:41.711Z,11.77
2023-05-15T02:41:46.744Z,11.69
2023-05-15T02:46:51.104Z,11.48
2023-05-15T02:51:52.929Z,11.50
2023-05-15T02:56:54.940Z,11.60
2023-05-15T03:01:56.697Z,11.62
2023-05-15T03:06:58.978Z,11.62
2023-05-15T03:12:00.766Z,11.54
2023-05-15T03:17:03.282Z,11.57
2023-05-15T03:22:05.100Z,11.63
2023-05-15T03:27:06.821Z,11.57
2023-05-15T03:32:08.888Z,11.67
2023-05-15T03:37:10.714Z,11.65
2023-05-15T03:42:12.486Z,11.51
2023-05-15T03:47:16.095Z,11.50
2023-05-15T03:52:17.915Z,11.55
2023-05-15T03:57:20.280Z,11.44
2023-05-15T04:02:22.219Z,11.44
2023-05-15T04:07:24.104Z,11.54
2023-05-15T04:12:28.138Z,11.51
2023-05-15T04:17:30.532Z,11.48
2023-05-15T04:22:32.312Z,11.47
2023-05-15T04:27:34.019Z,11.49
2023-05-15T04:32:36.395Z,11.54
2023-05-15T04:37:42.868Z,11.72
2023-05-15T04:42:44.590Z,11.81
2023-05-15T04:47:46.310Z,11.92
2023-05-15T04:52:48.436Z,12.00
2023-05-15T04:57:51.165Z,11.89
2023-05-15T05:02:52.990Z,11.99
2023-05-15T05:07:54.689Z,11.98
2023-05-15T05:12:56.555Z,12.08
2023-05-15T05:17:58.703Z,12.09
2023-05-15T05:23:00.593Z,12.20
2023-05-15T05:28:02.466Z,12.26
2023-05-15T05:33:04.266Z,12.31
2023-05-15T05:38:06.265Z,12.38
2023-05-15T05:43:08.101Z,12.71
2023-05-15T05:48:10.062Z,12.84
2023-05-15T05:53:12.031Z,12.64
2023-05-15T05:58:24.076Z,12.46
2023-05-15T06:03:27.684Z,12.36
2023-05-15T06:08:30.353Z,12.45
2023-05-15T06:13:32.785Z,12.38
2023-05-15T06:18:34.546Z,12.31
2023-05-15T06:23:37.361Z,12.43
2023-05-15T06:28:39.249Z,12.46
2023-05-15T06:33:41.249Z,12.49
2023-05-15T06:38:42.921Z,12.56
2023-05-15T06:43:44.655Z,12.64
2023-05-15T06:48:48.082Z,12.71
2023-05-15T06:53:49.751Z,12.62
2023-05-15T06:58:51.409Z,12.52
2023-05-15T07:03:53.114Z,12.50
2023-05-15T07:08:54.820Z,12.57
2023-05-15T07:13:56.644Z,12.66
2023-05-15T07:18:58.490Z,12.93
2023-05-15T07:24:00.431Z,13.07
2023-05-15T07:29:02.171Z,13.16
2023-05-15T07:34:04.032Z,13.18
2023-05-15T07:39:05.967Z,13.28
2023-05-15T07:44:07.906Z,13.34
2023-05-15T07:49:09.608Z,13.47
2023-05-15T07:54:11.725Z,13.81
2023-05-15T07:59:13.931Z,14.20
2023-05-15T08:04:15.865Z,14.52
2023-05-15T08:09:17.635Z,14.76
2023-05-15T08:14:19.248Z,14.76
2023-05-15T08:19:22.029Z,14.85
2023-05-15T08:24:24.119Z,15.05
2023-05-15T08:29:26.135Z,15.28
2023-05-15T08:34:28.787Z,15.39
2023-05-15T08:39:30.684Z,15.42
2023-05-15T08:44:33.206Z,15.37
2023-05-15T08:50:04.959Z,15.41
2023-05-15T08:55:07.371Z,15.46
2023-05-15T09:00:11.950Z,15.51
2023-05-15T09:05:13.655Z,15.46
2023-05-15T09:10:16.312Z,15.50
2023-05-15T09:15:23.093Z,15.77
2023-05-15T09:20:31.147Z,16.00
2023-05-15T09:25:44.850Z,16.02
2023-05-15T09:30:46.648Z,16.38
2023-05-15T09:35:48.339Z,16.62
2023-05-15T09:40:50.441Z,16.72
2023-05-15T09:45:52.439Z,16.93
2023-05-15T09:50:55.277Z,17.08
2023-05-15T09:55:57.058Z,17.24
2023-05-15T10:01:00.050Z,17.15
2023-05-15T10:06:03.565Z,17.09
2023-05-15T10:11:06.361Z,17.27
2023-05-15T10:16:08.643Z,17.49
2023-05-15T10:21:11.902Z,17.68
2023-05-15T10:26:16.747Z,17.58
2023-05-15T10:31:18.728Z,17.38
2023-05-15T10:36:21.048Z,17.46
2023-05-15T10:41:23.739Z,17.51
2023-05-15T10:46:26.720Z,17.72
2023-05-15T10:51:30.756Z,17.72
2023-05-15T10:56:38.599Z,17.47
2023-05-15T11:01:43.409Z,16.87
2023-05-15T11:06:47.611Z,16.78
2023-05-15T11:11:52.289Z,16.68
2023-05-15T11:16:54.159Z,16.60
2023-05-15T11:22:00.573Z,16.54
2023-05-15T11:27:04.855Z,16.56
2023-05-15T11:32:40.074Z,16.61
2023-05-15T11:37:43.535Z,16.64
2023-05-15T11:43:04.484Z,16.78
2023-05-15T11:48:08.332Z,16.60
2023-05-15T11:53:10.543Z,16.49
2023-05-15T11:58:17.394Z,16.61
2023-05-15T12:03:24.964Z,16.99
2023-05-15T12:08:32.418Z,17.52
2023-05-15T12:13:34.943Z,18.17
2023-05-15T12:18:36.764Z,18.43
2023-05-15T12:23:38.533Z,18.76
2023-05-15T12:28:40.431Z,19.13
2023-05-15T12:33:43.130Z,19.59
2023-05-15T12:38:44.808Z,19.67
2023-05-15T12:43:46.533Z,19.51
2023-05-15T12:48:49.690Z,19.43
2023-05-15T12:53:54.509Z,19.45
2023-05-15T12:58:56.459Z,19.72
2023-05-15T13:03:58.847Z,19.80
2023-05-15T13:09:00.784Z,19.77
2023-05-15T13:14:11.177Z,19.75
2023-05-15T13:19:13.265Z,19.86
2023-05-15T13:24:15.009Z,19.79
2023-05-15T13:29:16.741Z,20.13
2023-05-15T13:34:18.683Z,20.26
2023-05-15T13:39:20.419Z,20.41
2023-05-15T13:44:22.130Z,20.37
2023-05-15T13:49:24.018Z,20.35
2023-05-15T13:54:25.724Z,20.50
2023-05-15T13:59:27.444Z,20.10
2023-05-15T14:04:29.451Z,19.49
2023-05-15T14:09:32.195Z,19.14
2023-05-15T14:14:33.873Z,18.87
2023-05-15T14:19:35.504Z,18.59
2023-05-15T14:24:37.427Z,18.42
2023-05-15T14:29:39.774Z,18.36
2023-05-15T14:34:41.603Z,18.28
2023-05-15T14:39:43.249Z,18.36
2023-05-15T14:44:45.098Z,18.35
2023-05-15T14:49:47.467Z,18.35
2023-05-15T14:55:00.751Z,18.29
2023-05-15T15:00:11.056Z,18.23
2023-05-15T15:05:12.903Z,18.02
2023-05-15T15:10:14.730Z,17.89
2023-05-15T15:15:17.242Z,17.92
2023-05-15T15:20:20.433Z,17.85
2023-05-15T15:25:22.533Z,18.04
2023-05-15T15:30:24.360Z,18.05
2023-05-15T15:35:26.315Z,17.88
2023-05-15T15:40:29.810Z,17.71
2023-05-15T15:45:31.808Z,17.66
2023-05-15T15:50:33.497Z,17.52
2023-05-15T15:55:35.177Z,17.46
2023-05-15T16:00:37.409Z,17.33
2023-05-15T16:05:39.254Z,17.21
2023-05-15T16:10:41.090Z,17.14
2023-05-15T16:15:42.744Z,17.08
2023-05-15T16:20:45.027Z,16.97
2023-05-15T16:25:46.707Z,16.84
2023-05-15T16:30:50.876Z,16.80
2023-05-15T16:35:53.059Z,16.77
2023-05-15T16:40:54.772Z,16.70
2023-05-15T16:45:56.509Z,16.67
2023-05-15T16:50:58.239Z,16.68
2023-05-15T16:56:00.371Z,16.68
2023-05-15T17:01:02.180Z,16.64
2023-05-15T17:06:04.277Z,16.67
2023-05-15T17:11:05.923Z,16.63
2023-05-15T17:16:08.630Z,16.62
2023-05-15T17:21:11.047Z,16.64
2023-05-15T17:26:12.685Z,16.61
2023-05-15T17:31:14.364Z,16.62
2023-05-15T17:36:16.272Z,16.61
2023-05-15T17:41:18.128Z,16.61
2023-05-15T17:46:19.801Z,16.67
2023-05-15T17:51:21.583Z,16.66
2023-05-15T17:56:23.327Z,16.76
2023-05-15T18:01:24.979Z,16.95
2023-05-15T18:06:26.725Z,16.89
2023-05-15T18:11:28.504Z,16.76
2023-05-15T18:16:31.348Z,16.64
2023-05-15T18:21:35.119Z,16.59
2023-05-15T18:26:38.650Z,16.54
2023-05-15T18:31:40.454Z,16.43
2023-05-15T18:36:42.460Z,16.27
2023-05-15T18:41:44.377Z,16.21
2023-05-15T18:46:46.330Z,16.12
2023-05-15T18:51:48.037Z,16.08
2023-05-15T18:56:49.772Z,16.01
2023-05-15T19:01:53.705Z,15.91
2023-05-15T19:06:55.434Z,15.78
2023-05-15T19:11:59.979Z,15.66
2023-05-15T19:17:01.963Z,15.52
2023-05-15T19:22:04.030Z,15.35
2023-05-15T19:27:06.105Z,15.26
2023-05-15T19:32:08.576Z,15.27
2023-05-15T19:37:10.557Z,15.24
2023-05-15T19:42:12.439Z,15.22
2023-05-15T19:47:14.146Z,15.16
2023-05-15T19:52:16.462Z,15.13
2023-05-15T19:57:18.488Z,15.12
2023-05-15T20:02:20.379Z,15.06
2023-05-15T20:07:22.094Z,14.81
2023-05-15T20:12:23.800Z,14.63
2023-05-15T20:17:26.139Z,14.39
2023-05-15T20:22:27.985Z,14.18
2023-05-15T20:27:29.848Z,13.99
2023-05-15T20:32:31.930Z,14.02
2023-05-15T20:37:34.410Z,14.00
2023-05-15T20:42:36.337Z,13.97
2023-05-15T20:47:38.275Z,13.98
2023-05-15T20:52:40.290Z,13.53
2023-05-15T20:57:46.267Z,13.38
2023-05-15T21:02:48.207Z,13.21
2023-05-15T21:07:50.204Z,12.98
2023-05-15T21:12:51.807Z,12.98
2023-05-15T21:17:53.499Z,12.82
2023-05-15T21:22:55.272Z,12.89
2023-05-15T21:27:57.148Z,12.94
2023-05-15T21:32:59.146Z,12.79
2023-05-15T21:38:01.258Z,12.82
2023-05-15T21:43:02.888Z,12.85
2023-05-15T21:48:05.172Z,12.86
2023-05-15T21:53:07.404Z,12.78
2023-05-15T21:58:09.097Z,12.85
2023-05-15T22:03:11.631Z,12.91
2023-05-15T22:08:13.963Z,12.95
2023-05-15T22:13:15.781Z,12.93
2023-05-15T22:18:17.549Z,12.97
2023-05-15T22:23:19.389Z,13.03
2023-05-15T22:28:21.224Z,13.04
2023-05-15T22:33:24.372Z,12.97
2023-05-15T22:38:26.138Z,12.85
2023-05-15T22:43:27.825Z,12.68
2023-05-15T22:48:29.977Z,12.60
2023-05-15T22:53:31.909Z,12.58
2023-05-15T22:58:33.718Z,12.61
2023-05-15T23:03:35.585Z,12.66
2023-05-15T23:08:37.313Z,12.44
2023-05-15T23:13:38.987Z,12.49
2023-05-15T23:18:40.859Z,12.45
2023-05-15T23:23:42.584Z,12.39
2023-05-15T23:28:44.314Z,12.28
2023-05-15T23:33:45.913Z,12.29
2023-05-15T23:38:47.813Z,12.45
2023-05-15T23:43:52.226Z,12.55
2023-05-15T23:48:54.011Z,12.59
2023-05-15T23:53:56.122Z,12.59
2023-05-15T23:58:57.991Z,12.61
